Time;durP1;ratioP1;P1;durP2;ratioP2;P2;SDS_P1;SDS_P2;PMS_P1;PMS_P2;Temp;Humidity;BMP_temperature;BMP_pressure;BME280_temperature;BME280_humidity;BME280_pressure;Samples;Min_cycle;Max_cycle;Signal;HPM_P1;HPM_P2
2022/04/02 07:16:47;;;;;;;6.55;2.63;;;;;;;;;;10374111;28;20091;-62
2022/04/02 07:21:47;;;;;;;6.05;2.25;;;;;;;;;;10361486;28;20044;-62
2022/04/02 07:26:45;;;;;;;16.00;7.93;;;;;;;;;;10366274;28;20106;-62
2022/04/02 07:31:45;;;;;;;5.72;3.30;;;;;;;;;;10381253;28;20063;-62
2022/04/02 07:37:01;;;;;;;7.25;4.22;;;;;;;;;;10358917;28;20055;-63
2022/04/02 07:42:03;;;;;;;6.30;4.05;;;;;;;;;;10369940;28;20058;-63
2022/04/02 07:47:02;;;;;;;2.67;1.70;;;;;;;;;;10389918;28;20059;-62
2022/04/02 07:52:02;;;;;;;3.75;2.45;;;;;;;;;;10395707;28;20075;-62
2022/04/02 07:57:03;;;;;;;7.85;4.32;;;;;;;;;;10359008;28;20048;-62
2022/04/02 08:07:25;;;;;;;5.65;1.77;;;;;;;;;;10357323;28;20048;-61
2022/04/02 08:12:23;;;;;;;5.18;2.28;;;;;;;;;;10358638;28;20074;-62
2022/04/02 08:17:22;;;;;;;7.82;3.65;;;;;;;;;;10372116;28;20076;-61
2022/04/02 08:22:29;;;;;;;2.08;1.48;;;;;;;;;;10364678;28;20043;-62
2022/04/02 08:27:35;;;;;;;3.60;1.30;;;;;;;;;;10351304;28;20063;-61
2022/04/02 08:32:41;;;;;;;6.47;2.50;;;;;;;;;;10358510;28;20076;-62
2022/04/02 08:37:54;;;;;;;2.50;2.03;;;;;;;;;;10367073;28;20051;-62
2022/04/02 08:43:16;;;;;;;6.38;3.20;;;;;;;;;;10368894;27;20075;-62
2022/04/02 08:48:26;;;;;;;3.75;2.33;;;;;;;;;;10374968;28;20137;-62
2022/04/02 08:53:36;;;;;;;8.18;4.30;;;;;;;;;;10365530;28;20094;-62
2022/04/02 08:58:47;;;;;;;7.00;4.65;;;;;;;;;;10383697;28;20071;-62
2022/04/02 09:04:09;;;;;;;10.88;6.57;;;;;;;;;;10381303;28;20078;-62
2022/04/02 09:09:16;;;;;;;26.83;18.48;;;;;;;;;;10357103;28;20040;-62
2022/04/02 09:14:30;;;;;;;7.60;4.22;;;;;;;;;;10367790;28;20075;-62
2022/04/02 09:19:50;;;;;;;7.03;2.33;;;;;;;;;;10428178;27;20079;-62
2022/04/02 09:25:07;;;;;;;4.03;3.08;;;;;;;;;;10435200;27;20075;-62
2022/04/02 09:30:11;;;;;;;4.45;3.28;;;;;;;;;;10428633;27;20070;-62
2022/04/02 09:35:26;;;;;;;5.07;2.13;;;;;;;;;;10461021;27;20077;-64
2022/04/02 09:40:29;;;;;;;5.55;2.20;;;;;;;;;;10475520;27;20081;-64
2022/04/02 09:45:36;;;;;;;12.88;7.35;;;;;;;;;;10477041;27;20494;-64
2022/04/02 09:50:36;;;;;;;2.20;2.00;;;;;;;;;;10477370;27;20058;-64
2022/04/02 09:55:44;;;;;;;7.40;5.88;;;;;;;;;;10465921;27;20107;-65
2022/04/02 10:00:51;;;;;;;3.65;2.20;;;;;;;;;;10449445;27;20050;-64
2022/04/02 10:06:07;;;;;;;4.30;3.15;;;;;;;;;;10437948;27;20047;-64
2022/04/02 10:11:07;;;;;;;4.65;3.00;;;;;;;;;;10438225;27;20063;-64
2022/04/02 10:16:08;;;;;;;4.38;3.03;;;;;;;;;;10445829;27;20538;-64
2022/04/02 10:21:07;;;;;;;2.83;1.98;;;;;;;;;;10437266;27;20043;-64
2022/04/02 10:26:14;;;;;;;3.33;1.83;;;;;;;;;;10437441;27;20050;-65
2022/04/02 10:31:19;;;;;;;7.68;2.40;;;;;;;;;;10447592;27;20069;-65
2022/04/02 10:36:18;;;;;;;3.90;2.40;;;;;;;;;;10466074;27;20055;-65
2022/04/02 10:41:17;;;;;;;4.78;2.40;;;;;;;;;;10464995;27;20043;-64
2022/04/02 10:46:20;;;;;;;5.53;1.77;;;;;;;;;;10466715;27;20043;-64
2022/04/02 10:51:20;;;;;;;2.67;2.42;;;;;;;;;;10446355;27;20561;-64
2022/04/02 10:56:22;;;;;;;2.63;1.33;;;;;;;;;;10464460;27;20043;-64
2022/04/02 11:01:22;;;;;;;2.90;1.88;;;;;;;;;;10464829;27;20035;-65
2022/04/02 11:06:36;;;;;;;2.17;1.42;;;;;;;;;;10465567;27;20129;-64
2022/04/02 11:11:37;;;;;;;14.65;12.00;;;;;;;;;;10450789;27;20074;-63
2022/04/02 11:16:41;;;;;;;6.50;3.63;;;;;;;;;;10447341;27;20086;-64
2022/04/02 11:21:46;;;;;;;6.55;4.38;;;;;;;;;;10449001;27;20070;-64
2022/04/02 11:26:44;;;;;;;;;;;;;;;;;;10446451;27;20066;-64
2022/04/02 11:31:46;;;;;;;4.60;3.60;;;;;;;;;;10455306;27;20384;-65
2022/04/02 11:36:46;;;;;;;5.10;2.65;;;;;;;;;;10446370;27;20510;-64
2022/04/02 11:41:46;;;;;;;2.50;2.15;;;;;;;;;;10471772;27;20562;-63
2022/04/02 11:46:52;;;;;;;6.97;3.67;;;;;;;;;;10452993;27;20452;-65
2022/04/02 11:52:00;;;;;;;4.18;2.83;;;;;;;;;;10456734;27;20073;-64
2022/04/02 11:57:07;;;;;;;5.07;3.28;;;;;;;;;;10457891;27;20073;-64
2022/04/02 12:02:06;;;;;;;5.32;4.03;;;;;;;;;;10473477;27;20077;-64
2022/04/02 12:07:06;;;;;;;1.88;1.50;;;;;;;;;;10467199;27;20055;-64
2022/04/02 12:12:05;;;;;;;5.05;3.28;;;;;;;;;;10461336;27;20075;-64
2022/04/02 12:17:05;;;;;;;3.38;2.08;;;;;;;;;;10452432;27;20511;-64
2022/04/02 12:22:16;;;;;;;3.35;2.67;;;;;;;;;;10446762;27;20443;-64
2022/04/02 12:27:16;;;;;;;2.80;2.20;;;;;;;;;;10474129;27;20046;-63
2022/04/02 12:32:26;;;;;;;2.65;0.93;;;;;;;;;;10462505;27;20069;-64
2022/04/02 12:37:28;;;;;;;3.85;1.48;;;;;;;;;;10465308;27;20046;-63
2022/04/02 12:42:39;;;;;;;2.10;1.13;;;;;;;;;;10481392;27;20100;-64
2022/04/02 12:47:37;;;;;;;1.33;0.85;;;;;;;;;;10471556;27;20070;-64
2022/04/02 12:52:44;;;;;;;2.72;1.83;;;;;;;;;;10470211;27;20094;-63
2022/04/02 12:57:45;;;;;;;2.53;1.05;;;;;;;;;;10455223;27;20067;-64
2022/04/02 13:02:44;;;;;;;2.13;1.67;;;;;;;;;;10465226;27;20069;-64
2022/04/02 13:07:58;;;;;;;4.20;3.37;;;;;;;;;;10444970;27;20112;-64
2022/04/02 13:13:00;;;;;;;1.52;1.08;;;;;;;;;;10462562;27;20335;-65
2022/04/02 13:23:30;;;;;;;4.97;3.45;;;;;;;;;;10479351;27;20073;-64
2022/04/02 13:28:36;;;;;;;7.87;4.10;;;;;;;;;;10467804;27;20043;-63
2022/04/02 13:33:52;;;;;;;1.65;1.10;;;;;;;;;;10457582;27;20069;-63
2022/04/02 13:38:55;;;;;;;3.60;1.55;;;;;;;;;;10455157;27;20081;-64
2022/04/02 13:43:55;;;;;;;5.53;2.80;;;;;;;;;;10468983;27;20065;-63
2022/04/02 13:48:56;;;;;;;5.68;1.98;;;;;;;;;;10453824;27;20047;-63
2022/04/02 13:54:03;;;;;;;7.15;2.95;;;;;;;;;;10452456;27;20074;-63
2022/04/02 13:59:04;;;;;;;7.88;3.17;;;;;;;;;;10464799;27;20066;-63
2022/04/02 14:04:05;;;;;;;9.82;4.00;;;;;;;;;;10444890;27;20075;-63
2022/04/02 14:09:05;;;;;;;8.52;4.15;;;;;;;;;;10458865;27;20097;-63
2022/04/02 14:14:13;;;;;;;4.10;1.70;;;;;;;;;;10451555;27;20078;-63
2022/04/02 14:19:12;;;;;;;16.75;2.90;;;;;;;;;;10456135;27;20082;-64
2022/04/02 14:24:13;;;;;;;5.20;1.75;;;;;;;;;;10452357;27;20069;-63
2022/04/02 14:29:24;;;;;;;3.80;1.50;;;;;;;;;;10464774;27;20062;-63
2022/04/02 14:34:46;;;;;;;2.15;1.42;;;;;;;;;;10451594;27;20074;-63
2022/04/02 14:40:03;;;;;;;1.33;1.23;;;;;;;;;;10448085;27;20067;-62
2022/04/02 14:45:16;;;;;;;1.15;1.05;;;;;;;;;;10441789;27;20059;-62
2022/04/02 14:50:26;;;;;;;5.35;2.15;;;;;;;;;;10478198;27;20039;-61
2022/04/02 14:55:48;;;;;;;82.07;65.53;;;;;;;;;;10463034;27;20089;-62
2022/04/02 15:01:16;;;;;;;27.50;12.18;;;;;;;;;;10450000;27;20067;-63
2022/04/02 15:06:25;;;;;;;46.20;28.50;;;;;;;;;;10331328;27;20066;-64
2022/04/02 15:11:24;;;;;;;66.78;44.58;;;;;;;;;;10456193;27;20068;-63
2022/04/02 15:16:27;;;;;;;19.55;14.93;;;;;;;;;;10451149;27;20101;-63
2022/04/02 15:21:27;;;;;;;17.50;15.55;;;;;;;;;;10443454;27;20047;-61
2022/04/02 15:26:26;;;;;;;8.73;5.68;;;;;;;;;;10457713;27;20494;-63
2022/04/02 15:31:30;;;;;;;2.85;2.20;;;;;;;;;;10444682;27;20503;-63
2022/04/02 15:36:30;;;;;;;4.97;2.78;;;;;;;;;;10480767;27;20074;-63
2022/04/02 15:41:50;;;;;;;4.47;2.80;;;;;;;;;;10447520;27;20085;-63
2022/04/02 15:46:48;;;;;;;3.72;2.38;;;;;;;;;;10444355;27;20564;-62
2022/04/02 15:52:01;;;;;;;5.30;2.72;;;;;;;;;;10445297;27;20070;-62
2022/04/02 15:57:12;;;;;;;2.83;2.35;;;;;;;;;;10472803;27;20062;-63
2022/04/02 16:02:25;;;;;;;6.05;3.30;;;;;;;;;;10461565;27;20098;-62
2022/04/02 16:07:27;;;;;;;1.80;1.70;;;;;;;;;;10463129;27;20075;-63
2022/04/02 16:12:42;;;;;;;1.90;1.65;;;;;;;;;;10465443;27;20111;-62
2022/04/02 16:17:40;;;;;;;;;;;;;;;;;;10441409;27;20087;-63
2022/04/02 16:22:45;;;;;;;28.40;22.17;;;;;;;;;;10463504;27;19969;-63
2022/04/02 16:27:47;;;;;;;;;;;;;;;;;;10460921;27;20487;-65
2022/04/02 16:32:47;;;;;;;105.10;68.07;;;;;;;;;;10468491;27;19954;-64
2022/04/02 16:37:47;;;;;;;26.50;20.25;;;;;;;;;;10462915;27;20451;-62
2022/04/02 16:42:45;;;;;;;12.02;9.15;;;;;;;;;;10427073;27;20503;-63
2022/04/02 16:47:48;;;;;;;5.50;4.18;;;;;;;;;;10460956;27;20038;-64
2022/04/02 16:52:50;;;;;;;5.93;4.68;;;;;;;;;;10467859;27;20070;-64
2022/04/02 16:57:49;;;;;;;6.72;3.70;;;;;;;;;;10453313;27;20495;-63
2022/04/02 17:02:50;;;;;;;7.38;4.25;;;;;;;;;;10469654;27;20071;-64
2022/04/02 17:07:50;;;;;;;5.68;4.20;;;;;;;;;;10470660;27;20508;-63
2022/04/02 17:12:49;;;;;;;6.00;3.40;;;;;;;;;;10466651;27;20100;-62
2022/04/02 17:17:49;;;;;;;45.63;29.75;;;;;;;;;;10456563;27;20082;-63
2022/04/02 17:22:48;;;;;;;4.05;2.75;;;;;;;;;;10440852;27;20074;-63
2022/04/02 17:27:48;;;;;;;7.03;2.25;;;;;;;;;;10448078;27;20128;-63
2022/04/02 17:32:46;;;;;;;1.90;1.70;;;;;;;;;;10457232;27;20050;-64
2022/04/02 17:37:47;;;;;;;2.97;1.92;;;;;;;;;;10444328;27;20074;-65
2022/04/02 17:42:47;;;;;;;3.25;1.90;;;;;;;;;;10471673;27;20073;-65
2022/04/02 17:47:47;;;;;;;3.83;2.65;;;;;;;;;;10438972;27;20073;-63
2022/04/02 17:52:54;;;;;;;2.67;2.13;;;;;;;;;;10438738;27;20105;-64
2022/04/02 17:58:03;;;;;;;3.75;2.90;;;;;;;;;;10437945;27;20508;-64
2022/04/02 18:03:01;;;;;;;3.88;2.67;;;;;;;;;;10449717;27;20070;-64
2022/04/02 18:08:02;;;;;;;7.78;4.47;;;;;;;;;;10456415;27;20058;-64
2022/04/02 18:13:02;;;;;;;3.92;2.83;;;;;;;;;;10461009;27;20561;-64
2022/04/02 18:18:00;;;;;;;2.40;1.92;;;;;;;;;;10453225;27;20078;-65
2022/04/02 18:22:58;;;;;;;9.00;3.80;;;;;;;;;;10442906;27;20070;-64
2022/04/02 18:28:01;;;;;;;4.57;2.97;;;;;;;;;;10464501;27;20077;-64
2022/04/02 18:33:00;;;;;;;3.92;1.83;;;;;;;;;;10451578;27;20066;-64
2022/04/02 18:37:58;;;;;;;4.25;2.30;;;;;;;;;;10453597;27;20071;-64
2022/04/02 18:42:57;;;;;;;3.92;2.67;;;;;;;;;;10459676;27;20062;-62
2022/04/02 18:47:56;;;;;;;5.03;2.40;;;;;;;;;;10467005;27;20559;-63
2022/04/02 18:52:55;;;;;;;1.73;1.63;;;;;;;;;;10472990;27;20442;-62
2022/04/02 18:57:53;;;;;;;3.55;2.60;;;;;;;;;;10479785;27;20070;-63
2022/04/02 19:02:52;;;;;;;3.53;2.42;;;;;;;;;;10473951;27;20074;-63
2022/04/02 19:07:53;;;;;;;4.45;2.40;;;;;;;;;;10441367;27;20081;-64
2022/04/02 19:12:51;;;;;;;2.45;2.17;;;;;;;;;;10474747;27;20074;-62
2022/04/02 19:17:50;;;;;;;4.82;3.80;;;;;;;;;;10461608;27;20071;-62
2022/04/02 19:22:48;;;;;;;5.28;3.13;;;;;;;;;;10452514;27;20069;-63
2022/04/02 19:27:48;;;;;;;2.47;2.22;;;;;;;;;;10462140;27;20059;-63
2022/04/02 19:32:46;;;;;;;3.08;2.78;;;;;;;;;;10462688;27;20074;-63
2022/04/02 19:37:45;;;;;;;2.95;2.30;;;;;;;;;;10485506;27;20066;-62
2022/04/02 19:42:44;;;;;;;3.97;2.53;;;;;;;;;;10470231;27;20581;-64
2022/04/02 19:47:44;;;;;;;7.00;2.15;;;;;;;;;;10453920;27;20058;-65
2022/04/02 19:52:42;;;;;;;3.35;2.05;;;;;;;;;;10442099;27;20079;-65
2022/04/02 19:57:41;;;;;;;2.53;1.98;;;;;;;;;;10448507;27;20067;-64
2022/04/02 20:02:40;;;;;;;2.58;2.22;;;;;;;;;;10450658;27;20559;-63
2022/04/02 20:07:40;;;;;;;6.25;4.47;;;;;;;;;;10474959;27;20070;-64
2022/04/02 20:12:39;;;;;;;13.63;9.52;;;;;;;;;;10468859;27;20035;-64
2022/04/02 20:17:37;;;;;;;6.43;5.07;;;;;;;;;;10470940;27;20545;-64
2022/04/02 20:22:35;;;;;;;17.45;14.02;;;;;;;;;;10447525;27;20533;-64
2022/04/02 20:27:35;;;;;;;11.48;7.70;;;;;;;;;;10471763;27;20043;-64
2022/04/02 20:32:33;;;;;;;14.32;7.78;;;;;;;;;;10471687;27;20085;-63
2022/04/02 20:37:32;;;;;;;16.05;11.35;;;;;;;;;;10458628;27;20075;-64
2022/04/02 20:42:31;;;;;;;20.70;12.50;;;;;;;;;;10447003;27;20059;-63
2022/04/02 20:47:30;;;;;;;9.10;5.72;;;;;;;;;;10471273;27;20039;-63
2022/04/02 20:52:29;;;;;;;14.25;9.52;;;;;;;;;;10463633;27;20418;-63
2022/04/02 20:57:27;;;;;;;5.18;3.95;;;;;;;;;;10482601;27;20074;-64
2022/04/02 21:02:25;;;;;;;6.20;5.20;;;;;;;;;;10470795;27;20443;-63
2022/04/02 21:07:25;;;;;;;3.53;3.13;;;;;;;;;;10470363;27;20096;-64
2022/04/02 21:12:23;;;;;;;7.35;5.00;;;;;;;;;;10469583;27;20078;-64
2022/04/02 21:17:26;;;;;;;3.72;2.10;;;;;;;;;;10469486;27;20086;-64
2022/04/02 21:22:29;;;;;;;7.50;5.28;;;;;;;;;;10467655;27;20427;-64
2022/04/02 21:27:28;;;;;;;5.07;4.30;;;;;;;;;;10456050;27;20078;-64
2022/04/02 21:32:26;;;;;;;3.08;2.13;;;;;;;;;;10428811;27;20046;-63
2022/04/02 21:37:26;;;;;;;3.42;1.90;;;;;;;;;;10468278;27;20075;-63
2022/04/02 21:42:26;;;;;;;6.97;2.28;;;;;;;;;;10479506;27;20100;-64
2022/04/02 21:47:24;;;;;;;3.53;1.92;;;;;;;;;;10481108;27;20058;-63
2022/04/02 21:52:22;;;;;;;9.23;2.15;;;;;;;;;;10445861;27;20046;-65
2022/04/02 21:57:22;;;;;;;3.40;2.22;;;;;;;;;;10468598;27;20093;-64
2022/04/02 22:02:25;;;;;;;2.50;2.13;;;;;;;;;;10454452;27;20507;-63
2022/04/02 22:07:27;;;;;;;8.00;2.42;;;;;;;;;;10448283;27;20043;-63
2022/04/02 22:12:28;;;;;;;2.22;1.80;;;;;;;;;;10467910;27;20069;-63
2022/04/02 22:17:27;;;;;;;2.03;1.83;;;;;;;;;;10466119;27;20090;-62
2022/04/02 22:22:26;;;;;;;2.28;1.70;;;;;;;;;;10467619;27;20085;-64
2022/04/02 22:27:24;;;;;;;3.75;2.15;;;;;;;;;;10467711;27;20086;-63
2022/04/02 22:32:24;;;;;;;1.92;1.65;;;;;;;;;;10467855;27;20051;-63
2022/04/02 22:37:22;;;;;;;2.85;2.20;;;;;;;;;;10467214;27;20090;-63
2022/04/02 22:42:21;;;;;;;4.95;2.70;;;;;;;;;;10466576;27;20293;-62
2022/04/02 22:47:20;;;;;;;2.08;1.65;;;;;;;;;;10466332;27;20043;-64
2022/04/02 22:52:20;;;;;;;3.38;2.13;;;;;;;;;;10466197;27;20065;-63
2022/04/02 22:57:18;;;;;;;3.10;2.30;;;;;;;;;;10466638;27;20075;-63
2022/04/02 23:02:17;;;;;;;3.75;2.45;;;;;;;;;;10463928;27;20066;-63
2022/04/02 23:07:15;;;;;;;2.42;2.05;;;;;;;;;;10447021;27;20036;-64
2022/04/02 23:12:15;;;;;;;3.13;2.30;;;;;;;;;;10463467;27;20066;-63
2022/04/02 23:17:13;;;;;;;3.75;2.58;;;;;;;;;;10465846;27;20075;-63
2022/04/02 23:22:11;;;;;;;6.80;3.03;;;;;;;;;;10466938;27;20624;-64
2022/04/02 23:27:10;;;;;;;4.28;3.20;;;;;;;;;;10444413;27;20077;-63
2022/04/02 23:32:10;;;;;;;4.97;2.70;;;;;;;;;;10467076;27;20059;-64
2022/04/02 23:37:08;;;;;;;4.72;2.85;;;;;;;;;;10472832;27;20083;-64
2022/04/02 23:42:08;;;;;;;4.90;2.67;;;;;;;;;;10471779;27;20079;-63
2022/04/02 23:47:07;;;;;;;4.10;3.00;;;;;;;;;;10445472;27;20054;-63
2022/04/02 23:52:07;;;;;;;7.70;3.72;;;;;;;;;;10465001;27;20086;-64
2022/04/02 23:57:06;;;;;;;7.38;3.13;;;;;;;;;;10448193;27;20436;-63
